Time;durP1;ratioP1;P1;durP2;ratioP2;P2;SDS_P1;SDS_P2;PMS_P1;PMS_P2;Temp;Humidity;BMP_temperature;BMP_pressure;BME280_temperature;BME280_humidity;BME280_pressure;Samples;Min_cycle;Max_cycle;Signal;HPM_P1;HPM_P2
2021/10/01 00:02:16;;;;;;;105.57;56.72;;;14.40;99.90;;;;;;4995604;28;20035;-68
2021/10/01 00:04:42;;;;;;;115.30;56.50;;;14.40;99.90;;;;;;4988473;28;20041;-69
2021/10/01 00:07:10;;;;;;;110.28;57.20;;;14.40;99.90;;;;;;5013695;28;20383;-68
2021/10/01 00:09:37;;;;;;;108.68;57.10;;;14.50;99.90;;;;;;5015001;28;20178;-70
2021/10/01 00:12:06;;;;;;;108.45;56.30;;;14.50;99.90;;;;;;5015268;28;20034;-68
2021/10/01 00:14:33;;;;;;;105.90;54.35;;;14.50;99.90;;;;;;4997218;28;20125;-69
2021/10/01 00:16:59;;;;;;;94.25;52.55;;;14.50;99.90;;;;;;4997196;28;20036;-68
2021/10/01 00:19:26;;;;;;;104.13;53.90;;;14.50;99.90;;;;;;4997173;28;20030;-72
2021/10/01 00:21:52;;;;;;;101.03;54.63;;;14.50;99.90;;;;;;5014834;28;20037;-69
2021/10/01 00:24:18;;;;;;;104.68;53.85;;;14.60;99.90;;;;;;5014670;28;20033;-69
2021/10/01 00:26:44;;;;;;;109.53;56.75;;;14.60;99.90;;;;;;4996984;28;20025;-69
2021/10/01 00:29:11;;;;;;;100.68;55.38;;;14.50;99.90;;;;;;5014620;28;20104;-69
2021/10/01 00:31:37;;;;;;;109.97;55.72;;;14.60;99.90;;;;;;5014629;28;20069;-68
2021/10/01 00:34:04;;;;;;;108.38;55.17;;;14.50;99.90;;;;;;4996293;28;20384;-70
2021/10/01 00:36:31;;;;;;;122.40;58.50;;;14.50;99.90;;;;;;5014488;28;20037;-70
2021/10/01 00:38:58;;;;;;;109.80;56.72;;;14.50;99.90;;;;;;5014528;28;20061;-69
2021/10/01 00:41:28;;;;;;;104.50;56.03;;;14.50;99.90;;;;;;5014416;28;20049;-69
2021/10/01 00:43:54;;;;;;;112.70;56.35;;;14.50;99.90;;;;;;5014413;28;20116;-68
2021/10/01 00:46:24;;;;;;;116.10;57.08;;;14.50;99.90;;;;;;4996724;28;20478;-67
2021/10/01 00:48:50;;;;;;;106.57;53.88;;;14.60;99.90;;;;;;5014269;28;20022;-68
2021/10/01 00:51:19;;;;;;;112.25;56.42;;;14.60;99.90;;;;;;5014240;28;20057;-69
2021/10/01 00:53:46;;;;;;;109.07;53.90;;;14.50;99.90;;;;;;5014467;28;20490;-68
2021/10/01 00:56:12;;;;;;;109.72;56.03;;;14.60;99.90;;;;;;5014139;28;20072;-68
2021/10/01 00:58:38;;;;;;;106.88;53.42;;;14.50;99.90;;;;;;5013786;28;20434;-69
2021/10/01 01:03:30;;;;;;;106.05;55.28;;;14.50;99.90;;;;;;5013754;28;20030;-70
2021/10/01 01:06:19;;;;;;;109.47;54.20;;;14.50;99.90;;;;;;5014007;28;20029;-69
2021/10/01 01:09:24;;;;;;;106.75;53.20;;;14.50;99.90;;;;;;4996022;28;20029;-70
2021/10/01 01:11:49;;;;;;;96.28;51.90;;;14.50;99.90;;;;;;4991033;28;20584;-69
2021/10/01 01:14:25;;;;;;;100.22;51.50;;;14.50;99.90;;;;;;4996203;28;20038;-69
2021/10/01 01:16:55;;;;;;;91.30;49.58;;;14.60;99.90;;;;;;5013875;28;20026;-69
2021/10/01 01:20:07;;;;;;;104.80;52.50;;;14.60;99.90;;;;;;4996117;28;20032;-70
2021/10/01 01:22:39;;;;;;;99.60;51.90;;;14.60;99.90;;;;;;4952925;29;20043;-69
2021/10/01 01:25:40;;;;;;;103.53;51.88;;;14.60;99.90;;;;;;4952956;29;20071;-67
2021/10/01 01:28:16;;;;;;;100.13;50.17;;;14.60;99.90;;;;;;4936914;29;20046;-70
2021/10/01 01:30:49;;;;;;;97.15;51.25;;;14.60;99.90;;;;;;4953159;29;20035;-70
2021/10/01 01:33:20;;;;;;;106.63;52.20;;;14.60;99.90;;;;;;4952620;29;20070;-69
2021/10/01 01:35:52;;;;;;;91.88;50.95;;;14.60;99.90;;;;;;4952721;29;20094;-69
2021/10/01 01:38:26;;;;;;;86.78;47.05;;;14.60;99.90;;;;;;4952826;29;20036;-69
2021/10/01 01:40:55;;;;;;;90.10;48.65;;;14.60;99.90;;;;;;4952863;29;20043;-68
2021/10/01 01:43:23;;;;;;;93.15;48.55;;;14.70;99.90;;;;;;4952811;29;20028;-72
2021/10/01 01:45:50;;;;;;;90.38;49.13;;;14.60;99.90;;;;;;4952667;29;20440;-67
2021/10/01 01:48:18;;;;;;;103.57;51.92;;;14.60;99.90;;;;;;4952657;29;20043;-66
2021/10/01 01:50:45;;;;;;;96.25;52.05;;;14.60;99.90;;;;;;4952648;29;20104;-71
2021/10/01 01:53:14;;;;;;;97.93;49.58;;;14.60;99.90;;;;;;4936428;29;20046;-68
2021/10/01 01:55:41;;;;;;;97.38;52.22;;;14.60;99.90;;;;;;4952508;29;20043;-69
2021/10/01 01:58:08;;;;;;;98.65;50.53;;;14.50;99.90;;;;;;4963619;28;20034;-68
2021/10/01 02:00:35;;;;;;;101.80;52.47;;;14.50;99.90;;;;;;5033021;28;20030;-69
2021/10/01 02:03:02;;;;;;;94.50;52.13;;;14.50;99.90;;;;;;5033009;28;20029;-68
2021/10/01 02:05:29;;;;;;;94.93;49.55;;;14.40;99.90;;;;;;5032970;28;20061;-69
2021/10/01 02:07:59;;;;;;;104.35;51.53;;;14.40;99.90;;;;;;5032875;28;20029;-67
2021/10/01 02:10:26;;;;;;;100.88;51.10;;;14.40;99.90;;;;;;5033184;28;20063;-68
2021/10/01 02:12:55;;;;;;;101.03;49.92;;;14.40;99.90;;;;;;5035557;28;20080;-70
2021/10/01 02:15:23;;;;;;;98.93;49.40;;;14.40;99.90;;;;;;5019047;28;20068;-70
2021/10/01 02:17:51;;;;;;;96.22;50.63;;;14.40;99.90;;;;;;5036824;28;20021;-70
2021/10/01 02:20:19;;;;;;;95.30;49.92;;;14.30;99.90;;;;;;5036881;28;20029;-71
2021/10/01 02:22:46;;;;;;;99.15;51.15;;;14.30;99.90;;;;;;5036492;28;20474;-69
2021/10/01 02:28:12;;;;;;;99.45;50.13;;;14.40;99.90;;;;;;5036476;28;20067;-68
2021/10/01 02:30:39;;;;;;;;;;;14.40;99.90;;;;;;5019363;28;20439;-68
2021/10/01 02:33:20;;;;;;;91.70;49.05;;;14.40;99.90;;;;;;5018535;28;19923;-70
2021/10/01 02:35:46;;;;;;;87.20;48.33;;;14.40;99.90;;;;;;5036608;28;20043;-68
2021/10/01 02:38:12;;;;;;;89.97;48.55;;;14.40;99.90;;;;;;5036444;28;20057;-69
2021/10/01 02:40:38;;;;;;;96.70;49.95;;;14.40;99.90;;;;;;5036524;28;20061;-68
2021/10/01 02:43:04;;;;;;;99.18;51.17;;;14.40;99.90;;;;;;5018623;28;20025;-68
2021/10/01 02:45:30;;;;;;;103.07;52.53;;;14.40;99.90;;;;;;5036339;28;20381;-69
2021/10/01 02:48:02;;;;;;;108.78;52.65;;;14.40;99.90;;;;;;5018200;28;20121;-68
2021/10/01 02:50:28;;;;;;;92.13;50.40;;;14.40;99.90;;;;;;5035976;28;20029;-69
2021/10/01 02:53:12;;;;;;;100.80;50.13;;;14.50;99.90;;;;;;5036207;28;20083;-70
2021/10/01 02:55:37;;;;;;;94.95;50.78;;;14.40;99.90;;;;;;5036202;28;20041;-69
2021/10/01 02:58:16;;;;;;;96.60;49.20;;;14.40;99.90;;;;;;5035871;28;20535;-70
2021/10/01 03:00:45;;;;;;;92.70;49.95;;;14.40;99.90;;;;;;5036058;28;20029;-69
2021/10/01 03:03:16;;;;;;;100.25;51.22;;;14.40;99.90;;;;;;5018232;28;20029;-69
2021/10/01 03:05:43;;;;;;;105.55;50.30;;;14.40;99.90;;;;;;5036058;28;20021;-69
2021/10/01 03:08:11;;;;;;;93.28;49.88;;;14.50;99.90;;;;;;5018146;28;20121;-68
2021/10/01 03:10:39;;;;;;;91.07;48.35;;;14.50;99.90;;;;;;5018115;28;20034;-71
2021/10/01 03:13:07;;;;;;;93.03;49.88;;;14.50;99.90;;;;;;5018092;28;20021;-69
2021/10/01 03:15:36;;;;;;;93.63;49.90;;;14.50;99.90;;;;;;5035762;28;20116;-70
2021/10/01 03:18:02;;;;;;;98.88;50.10;;;14.50;99.90;;;;;;5035969;28;20033;-69
2021/10/01 03:20:29;;;;;;;102.30;49.03;;;14.50;99.90;;;;;;5035718;28;20451;-70
2021/10/01 03:22:55;;;;;;;94.68;50.83;;;14.50;99.90;;;;;;5035524;28;20044;-68
2021/10/01 03:25:22;;;;;;;84.63;46.83;;;14.50;99.90;;;;;;5017863;28;20090;-70
2021/10/01 03:27:48;;;;;;;91.28;47.63;;;14.50;99.90;;;;;;5035276;28;20026;-69
2021/10/01 03:30:15;;;;;;;89.03;46.70;;;14.50;99.90;;;;;;5017842;28;20029;-69
2021/10/01 03:32:40;;;;;;;87.82;48.67;;;14.50;99.90;;;;;;5030519;28;20047;-70
2021/10/01 03:35:08;;;;;;;84.72;46.15;;;14.50;99.90;;;;;;5015728;28;20045;-69
2021/10/01 03:37:34;;;;;;;76.72;46.60;;;14.50;99.90;;;;;;5015693;28;20026;-69
2021/10/01 03:40:06;;;;;;;91.68;46.50;;;14.50;99.90;;;;;;5015674;28;20526;-69
2021/10/01 03:42:32;;;;;;;82.03;46.67;;;14.50;99.90;;;;;;5015614;28;20463;-67
2021/10/01 03:44:58;;;;;;;88.70;46.83;;;14.50;99.90;;;;;;4997605;28;20038;-67
2021/10/01 03:47:24;;;;;;;84.35;45.78;;;14.50;99.90;;;;;;5015462;28;20025;-69
2021/10/01 03:49:50;;;;;;;88.80;46.88;;;14.50;99.90;;;;;;5015375;28;20124;-71
2021/10/01 03:52:17;;;;;;;81.72;45.92;;;14.40;99.90;;;;;;5015107;28;20063;-69
2021/10/01 03:54:49;;;;;;;79.10;43.83;;;14.40;99.90;;;;;;5015262;28;20038;-69
2021/10/01 03:57:17;;;;;;;;;;;14.40;99.90;;;;;;5015733;28;20057;-68
2021/10/01 03:59:44;;;;;;;73.13;43.08;;;14.40;99.90;;;;;;5015246;28;19912;-70
2021/10/01 04:02:10;;;;;;;76.85;42.60;;;14.40;99.90;;;;;;5014893;28;20406;-68
2021/10/01 04:04:37;;;;;;;75.55;43.65;;;14.40;99.90;;;;;;5015504;28;20068;-69
2021/10/01 04:07:03;;;;;;;73.68;43.20;;;14.40;99.90;;;;;;5015092;28;20053;-68
2021/10/01 04:09:29;;;;;;;75.88;43.13;;;14.30;99.90;;;;;;4997432;28;20030;-68
2021/10/01 04:11:56;;;;;;;76.45;42.97;;;14.40;99.90;;;;;;4997347;28;20034;-70
2021/10/01 04:14:23;;;;;;;78.57;42.80;;;14.40;99.90;;;;;;5015227;28;20192;-71
2021/10/01 04:16:49;;;;;;;71.72;42.10;;;14.40;99.90;;;;;;5014901;28;20084;-71
2021/10/01 04:19:16;;;;;;;82.20;44.83;;;14.50;99.90;;;;;;5014878;28;20026;-72
2021/10/01 04:21:43;;;;;;;79.18;43.13;;;14.50;99.90;;;;;;5015053;28;20072;-67
2021/10/01 04:24:09;;;;;;;80.70;45.90;;;14.50;99.90;;;;;;4997150;28;20025;-68
2021/10/01 04:26:35;;;;;;;75.95;43.47;;;14.50;99.90;;;;;;5014717;28;20030;-69
2021/10/01 04:29:01;;;;;;;76.07;43.67;;;14.50;99.90;;;;;;4997028;28;20454;-70
2021/10/01 04:31:27;;;;;;;74.35;42.35;;;14.50;99.90;;;;;;5014612;28;20021;-68
2021/10/01 04:33:53;;;;;;;70.30;40.90;;;14.50;99.90;;;;;;5013155;28;20049;-69
2021/10/01 04:36:19;;;;;;;63.55;40.13;;;14.60;99.90;;;;;;4995205;28;20037;-68
2021/10/01 04:38:45;;;;;;;64.32;41.10;;;14.60;99.90;;;;;;4995928;28;20053;-69
2021/10/01 04:41:11;;;;;;;76.90;42.47;;;14.60;99.90;;;;;;5013626;28;20034;-70
2021/10/01 04:43:37;;;;;;;84.90;43.67;;;14.60;99.90;;;;;;5013516;28;20061;-69
2021/10/01 04:46:06;;;;;;;75.32;42.25;;;14.50;99.90;;;;;;5013854;28;20119;-69
2021/10/01 04:48:32;;;;;;;78.40;44.63;;;14.60;99.90;;;;;;5013201;28;20033;-68
2021/10/01 04:50:58;;;;;;;74.65;43.97;;;14.60;99.90;;;;;;4995818;28;20029;-70
2021/10/01 04:53:24;;;;;;;71.53;44.08;;;14.60;99.90;;;;;;5013124;28;20076;-70
2021/10/01 04:55:50;;;;;;;78.72;43.35;;;14.60;99.90;;;;;;5013290;28;20059;-66
2021/10/01 04:58:16;;;;;;;77.25;43.03;;;14.60;99.90;;;;;;5013334;28;20033;-69
2021/10/01 05:00:41;;;;;;;77.50;42.63;;;14.60;99.90;;;;;;5013251;28;20088;-68
2021/10/01 05:03:07;;;;;;;71.13;41.10;;;14.70;99.90;;;;;;4995579;28;20121;-68
2021/10/01 05:05:33;;;;;;;71.63;41.72;;;14.70;99.90;;;;;;5013240;28;20467;-71
2021/10/01 05:08:01;;;;;;;72.80;43.30;;;14.70;99.90;;;;;;4995527;28;20374;-69
2021/10/01 05:10:26;;;;;;;75.93;43.05;;;14.70;99.90;;;;;;5013409;28;20040;-69
2021/10/01 05:12:52;;;;;;;78.70;45.63;;;14.70;99.90;;;;;;4995380;28;20038;-69
2021/10/01 05:15:19;;;;;;;87.70;46.70;;;14.70;99.90;;;;;;5012934;28;20033;-69
2021/10/01 05:17:45;;;;;;;92.43;44.97;;;14.70;99.90;;;;;;4995349;28;20379;-70
2021/10/01 05:20:13;;;;;;;86.82;47.22;;;14.60;99.90;;;;;;5012952;28;20029;-68
2021/10/01 05:22:39;;;;;;;82.22;44.42;;;14.70;99.90;;;;;;5012764;28;20549;-67
2021/10/01 05:25:06;;;;;;;79.00;44.42;;;14.70;99.90;;;;;;5012968;28;20033;-67
2021/10/01 05:27:33;;;;;;;75.47;41.63;;;14.70;99.90;;;;;;4995281;28;20470;-66
2021/10/01 05:29:59;;;;;;;79.53;44.53;;;14.80;99.90;;;;;;5012831;28;20128;-68
2021/10/01 05:32:25;;;;;;;82.67;44.83;;;14.80;99.90;;;;;;4961258;28;1487656;-67
2021/10/01 05:34:52;;;;;;;91.10;47.13;;;14.80;99.90;;;;;;4995881;28;20493;-68
2021/10/01 05:37:19;;;;;;;101.53;46.03;;;14.80;99.90;;;;;;5013376;28;20042;-69
2021/10/01 05:39:45;;;;;;;83.20;44.05;;;14.80;99.90;;;;;;5013356;28;20036;-68
2021/10/01 05:42:11;;;;;;;88.38;45.30;;;14.80;99.90;;;;;;5012994;28;20121;-69
2021/10/01 05:44:37;;;;;;;79.93;44.63;;;14.90;99.90;;;;;;5013502;28;20033;-67
2021/10/01 05:47:05;;;;;;;87.75;44.88;;;14.90;99.90;;;;;;5013067;28;20083;-68
2021/10/01 05:49:38;;;;;;;87.53;45.30;;;14.90;99.90;;;;;;4995526;28;20494;-66
2021/10/01 05:54:41;;;;;;;84.68;44.42;;;15.00;99.90;;;;;;5013124;28;20037;-67
2021/10/01 05:57:11;;;;;;;90.43;45.30;;;15.00;99.90;;;;;;5012331;28;20062;-66
2021/10/01 05:59:38;;;;;;;89.20;46.35;;;15.00;99.90;;;;;;4986170;28;20030;-67
2021/10/01 06:02:05;;;;;;;101.18;47.30;;;15.10;99.90;;;;;;4975403;28;20050;-68
2021/10/01 06:04:31;;;;;;;98.38;49.08;;;15.00;99.90;;;;;;4992993;28;20050;-71
2021/10/01 06:06:57;;;;;;;92.00;46.35;;;15.00;99.90;;;;;;4975503;28;20501;-69
2021/10/01 06:09:24;;;;;;;98.90;48.05;;;15.00;99.90;;;;;;4993427;28;20041;-70
2021/10/01 06:11:50;;;;;;;89.72;46.40;;;15.10;99.90;;;;;;4993438;28;20451;-68
2021/10/01 06:14:21;;;;;;;85.95;45.10;;;15.20;99.90;;;;;;4975739;28;20039;-68
2021/10/01 06:16:48;;;;;;;79.97;46.83;;;15.20;99.90;;;;;;4993475;28;20077;-68
2021/10/01 06:19:14;;;;;;;85.72;47.13;;;15.30;99.90;;;;;;4993036;28;20030;-71
2021/10/01 06:21:40;;;;;;;78.88;44.00;;;15.40;99.90;;;;;;4993025;28;20124;-68
2021/10/01 06:24:05;;;;;;;87.32;47.67;;;15.40;99.90;;;;;;4993046;28;20026;-70
2021/10/01 06:26:31;;;;;;;89.22;46.30;;;15.40;99.90;;;;;;4975799;28;20037;-70
2021/10/01 06:28:57;;;;;;;93.18;47.33;;;15.50;99.90;;;;;;4975442;28;20399;-68
2021/10/01 06:31:23;;;;;;;104.40;50.10;;;15.50;99.90;;;;;;4976057;28;20030;-70
2021/10/01 06:33:49;;;;;;;93.63;49.13;;;15.40;99.90;;;;;;4975245;28;20043;-71
2021/10/01 06:36:19;;;;;;;94.40;50.35;;;15.50;99.90;;;;;;4993327;28;20030;-69
2021/10/01 06:38:45;;;;;;;97.93;51.60;;;15.50;99.90;;;;;;4974754;28;20458;-65
2021/10/01 06:41:13;;;;;;;99.18;51.88;;;15.60;99.90;;;;;;5002516;28;20371;-67
2021/10/01 06:43:40;;;;;;;104.35;54.00;;;15.60;99.90;;;;;;4994570;28;20148;-67
2021/10/01 06:46:14;;;;;;;116.13;55.28;;;15.70;99.90;;;;;;5012213;28;20057;-66
2021/10/01 07:24:16;;;;;;;102.43;54.17;;;17.00;99.90;;;;;;4996211;28;20039;-73
2021/10/01 08:21:26;;;;;;;74.72;50.72;;;17.70;99.90;;;;;;5014531;28;20545;-73
2021/10/01 08:24:02;;;;;;;76.32;49.35;;;17.90;99.90;;;;;;5014602;28;20029;-70
2021/10/01 08:26:29;;;;;;;79.13;48.83;;;18.10;99.90;;;;;;4996814;28;20073;-70
2021/10/01 08:28:55;;;;;;;78.00;47.47;;;18.20;99.90;;;;;;4996668;28;20438;-68
2021/10/01 08:31:25;;;;;;;73.85;44.15;;;18.30;99.90;;;;;;5014038;28;20077;-72
2021/10/01 08:33:51;;;;;;;70.93;47.58;;;18.30;99.90;;;;;;5013910;28;20076;-70
2021/10/01 08:36:18;;;;;;;74.78;48.40;;;18.20;99.90;;;;;;4996644;28;20399;-67
2021/10/01 08:38:47;;;;;;;73.13;45.13;;;18.30;99.90;;;;;;5014417;28;20037;-70
2021/10/01 08:41:13;;;;;;;70.68;44.63;;;18.50;99.90;;;;;;4996661;28;20026;-72
2021/10/01 08:43:44;;;;;;;73.57;46.40;;;18.50;99.90;;;;;;5013984;28;20116;-69
2021/10/01 08:46:11;;;;;;;70.60;45.27;;;18.50;99.90;;;;;;5013883;28;20105;-69
2021/10/01 08:48:38;;;;;;;70.03;46.30;;;18.60;99.90;;;;;;5013815;28;20664;-68
2021/10/01 08:51:07;;;;;;;73.13;44.78;;;18.70;99.90;;;;;;5013672;28;20056;-72
2021/10/01 08:53:34;;;;;;;69.50;44.35;;;18.70;99.90;;;;;;5013978;28;20030;-69
2021/10/01 08:56:00;;;;;;;64.45;41.63;;;19.10;99.90;;;;;;5014131;28;20037;-68
2021/10/01 08:58:27;;;;;;;57.03;38.10;;;19.10;99.90;;;;;;5002700;28;20031;-69
2021/10/01 09:00:56;;;;;;;62.38;40.38;;;19.10;99.90;;;;;;4994244;28;20034;-68
2021/10/01 09:03:22;;;;;;;55.60;36.72;;;19.20;99.90;;;;;;4994159;28;20030;-66
2021/10/01 09:05:48;;;;;;;54.72;35.72;;;19.10;99.90;;;;;;4994201;28;20356;-67
2021/10/01 09:08:20;;;;;;;51.08;33.72;;;19.50;99.90;;;;;;4994203;28;20530;-69
2021/10/01 09:11:04;;;;;;;56.45;35.55;;;19.70;99.90;;;;;;4993774;28;20034;-69
2021/10/01 09:13:33;;;;;;;53.50;34.75;;;19.50;99.90;;;;;;4993998;28;20036;-68
2021/10/01 09:16:05;;;;;;;52.50;35.47;;;19.30;99.90;;;;;;4975497;28;20034;-71
2021/10/01 09:18:34;;;;;;;51.67;33.63;;;19.10;99.90;;;;;;4994375;28;20383;-72
2021/10/01 09:21:05;;;;;;;56.10;34.33;;;19.00;99.90;;;;;;4993567;28;20085;-72
2021/10/01 09:23:33;;;;;;;50.15;35.63;;;19.10;99.90;;;;;;4993958;28;20026;-71
2021/10/01 09:26:26;;;;;;;53.55;33.75;;;19.20;99.90;;;;;;4993934;28;20037;-72
2021/10/01 09:29:08;;;;;;;53.55;33.78;;;19.50;99.90;;;;;;4990562;28;20038;-71
2021/10/01 09:31:38;;;;;;;;;;;19.80;99.90;;;;;;4994234;28;20618;-69
2021/10/01 09:34:08;;;;;;;55.22;36.67;;;19.60;99.90;;;;;;5008842;28;20008;-67
2021/10/01 09:36:35;;;;;;;54.92;32.08;;;19.50;99.90;;;;;;5010070;28;20034;-69
2021/10/01 09:39:02;;;;;;;49.90;30.35;;;19.60;99.90;;;;;;5011564;28;20025;-70
2021/10/01 09:41:30;;;;;;;44.70;27.98;;;20.50;99.90;;;;;;5013415;28;20038;-74
2021/10/01 09:44:06;;;;;;;42.05;28.02;;;21.30;98.90;;;;;;5011835;28;20121;-72
2021/10/01 09:46:41;;;;;;;41.08;28.52;;;21.80;98.00;;;;;;5013294;28;20373;-72
2021/10/01 09:49:08;;;;;;;42.67;28.08;;;22.20;97.40;;;;;;5013235;28;20018;-69
2021/10/01 09:51:35;;;;;;;30.35;21.55;;;22.40;96.20;;;;;;5012911;28;20145;-68
2021/10/01 09:54:13;;;;;;;34.53;22.20;;;22.40;92.70;;;;;;5013063;28;20061;-69
2021/10/01 09:56:40;;;;;;;34.17;22.02;;;22.30;93.10;;;;;;5011833;28;20041;-67
2021/10/01 09:59:22;;;;;;;31.77;20.63;;;22.40;92.50;;;;;;5013251;28;20049;-68
2021/10/01 10:02:11;;;;;;;30.15;21.25;;;22.50;91.10;;;;;;5013340;28;20045;-68
2021/10/01 10:04:42;;;;;;;33.40;21.73;;;22.40;90.40;;;;;;5013137;28;20034;-68
2021/10/01 10:07:24;;;;;;;36.78;22.33;;;22.20;90.70;;;;;;5013220;28;20037;-71
2021/10/01 10:09:51;;;;;;;37.90;24.45;;;22.50;91.40;;;;;;5011825;28;20116;-70
2021/10/01 10:12:41;;;;;;;37.05;24.77;;;22.80;90.90;;;;;;4998493;28;20069;-69
2021/10/01 10:15:15;;;;;;;41.30;26.00;;;23.40;88.40;;;;;;5008831;28;20054;-69
2021/10/01 10:17:50;;;;;;;33.42;23.70;;;23.80;85.60;;;;;;5012973;28;20041;-70
2021/10/01 10:20:18;;;;;;;30.25;18.92;;;24.30;82.10;;;;;;5011607;28;20474;-69
2021/10/01 10:22:44;;;;;;;24.35;16.80;;;;;;;;;;5012970;28;20066;-69
2021/10/01 10:25:10;;;;;;;21.20;13.88;;;24.70;79.50;;;;;;5011213;28;20076;-73
2021/10/01 10:27:36;;;;;;;21.77;12.85;;;;;;;;;;5012482;28;20029;-68
2021/10/01 10:30:05;;;;;;;29.73;14.10;;;24.90;72.50;;;;;;5010979;28;20382;-70
2021/10/01 10:32:32;;;;;;;22.55;13.63;;;26.50;71.20;;;;;;5012172;28;20437;-69
2021/10/01 10:35:01;;;;;;;23.20;14.35;;;26.90;70.60;;;;;;5016488;28;20030;-69
2021/10/01 10:37:37;;;;;;;23.00;13.88;;;27.90;67.30;;;;;;5016511;28;20092;-71
2021/10/01 10:40:18;;;;;;;30.15;15.77;;;28.60;66.20;;;;;;5014983;28;20474;-72
2021/10/01 10:42:44;;;;;;;30.38;15.75;;;;;;;;;;5016382;28;20041;-68
2021/10/01 10:45:13;;;;;;;39.45;17.20;;;28.40;70.00;;;;;;5014848;28;20482;-68
2021/10/01 10:47:43;;;;;;;38.38;17.58;;;;;;;;;;5016431;28;20026;-69
2021/10/01 10:50:33;;;;;;;24.38;14.18;;;28.80;69.40;;;;;;5015027;28;20040;-68
2021/10/01 10:53:16;;;;;;;24.00;14.20;;;28.70;62.20;;;;;;5016204;28;20093;-68
2021/10/01 10:55:51;;;;;;;22.48;13.50;;;29.70;65.10;;;;;;5014876;28;20033;-68
2021/10/01 11:00:54;;;;;;;25.58;14.05;;;30.70;57.10;;;;;;5014529;28;20034;-68
2021/10/01 11:03:21;;;;;;;;;;;31.40;52.80;;;;;;5003730;28;20485;-70
2021/10/01 11:06:07;;;;;;;22.60;12.15;;;31.30;58.90;;;;;;4995577;28;19906;-71
2021/10/01 11:08:34;;;;;;;18.13;12.20;;;;;;;;;;4988357;28;20516;-72
2021/10/01 11:11:00;;;;;;;21.95;13.35;;;32.30;54.00;;;;;;4994622;28;20533;-70
2021/10/01 11:13:28;;;;;;;23.40;13.63;;;32.30;56.50;;;;;;4994578;28;20037;-71
2021/10/01 11:16:11;;;;;;;24.52;13.27;;;32.30;51.40;;;;;;4994435;28;20034;-69
2021/10/01 11:19:01;;;;;;;18.40;12.45;;;33.30;58.00;;;;;;4995909;28;20089;-71
2021/10/01 11:21:27;;;;;;;18.33;11.57;;;34.00;53.00;;;;;;4997284;28;20113;-69
2021/10/01 11:24:18;;;;;;;22.50;13.20;;;33.70;48.50;;;;;;4997630;28;20042;-70
2021/10/01 11:26:58;;;;;;;23.48;15.20;;;34.00;51.50;;;;;;4995649;28;20467;-71
2021/10/01 11:29:31;;;;;;;17.00;12.63;;;34.10;49.00;;;;;;4995931;28;20022;-69
2021/10/01 11:32:09;;;;;;;22.05;12.30;;;33.90;51.30;;;;;;4994346;28;20125;-69
2021/10/01 11:34:59;;;;;;;22.95;12.63;;;32.70;52.10;;;;;;4995525;28;20035;-70
2021/10/01 11:37:47;;;;;;;29.60;12.48;;;33.70;53.20;;;;;;4977526;28;20130;-70
2021/10/01 11:40:24;;;;;;;30.25;12.30;;;34.50;52.10;;;;;;4995274;28;20037;-73
2021/10/01 11:42:56;;;;;;;21.00;12.88;;;34.90;50.80;;;;;;4995469;28;20386;-73
2021/10/01 11:45:26;;;;;;;;;;;35.20;52.10;;;;;;4995613;28;20042;-73
2021/10/01 11:47:54;;;;;;;24.48;11.57;;;;;;;;;;4995178;28;20248;-70
2021/10/01 11:50:44;;;;;;;18.08;10.77;;;35.10;51.30;;;;;;4995431;28;20041;-72
2021/10/01 11:53:22;;;;;;;19.90;10.52;;;34.30;49.80;;;;;;5003943;28;20045;-70
2021/10/01 11:55:55;;;;;;;21.58;12.15;;;35.20;49.70;;;;;;4996978;28;20045;-69
2021/10/01 11:58:23;;;;;;;18.65;12.40;;;35.50;48.90;;;;;;5014460;28;20422;-71
2021/10/01 12:00:50;;;;;;;17.48;11.70;;;35.70;49.10;;;;;;5014649;28;20422;-69
2021/10/01 12:03:18;;;;;;;21.90;12.15;;;35.50;49.80;;;;;;5014733;28;20084;-71
2021/10/01 12:05:50;;;;;;;19.63;12.13;;;35.70;49.30;;;;;;4997141;28;20128;-73
2021/10/01 12:08:20;;;;;;;23.23;12.25;;;36.00;48.60;;;;;;5014749;28;20148;-72
2021/10/01 12:10:49;;;;;;;22.58;13.07;;;36.30;47.90;;;;;;5014873;28;20034;-70
2021/10/01 12:13:26;;;;;;;24.70;12.35;;;35.00;49.70;;;;;;5014714;28;20030;-69
2021/10/01 12:16:10;;;;;;;19.77;12.77;;;33.30;49.70;;;;;;4996912;28;20048;-72
2021/10/01 12:18:44;;;;;;;19.50;12.50;;;31.80;54.90;;;;;;5014072;28;20467;-72
2021/10/01 12:21:13;;;;;;;22.92;12.25;;;32.70;54.00;;;;;;5011517;28;20030;-73
2021/10/01 12:23:48;;;;;;;17.73;11.27;;;33.80;52.60;;;;;;4994699;28;20114;-71
2021/10/01 12:26:17;;;;;;;21.27;12.30;;;34.60;51.10;;;;;;4976303;28;20441;-72
2021/10/01 12:29:08;;;;;;;18.48;11.90;;;33.40;50.50;;;;;;4994872;28;20486;-72
2021/10/01 12:31:48;;;;;;;20.20;12.73;;;33.20;49.80;;;;;;4993667;28;20030;-71
2021/10/01 12:34:21;;;;;;;16.90;12.25;;;31.20;55.10;;;;;;5008633;28;20306;-72
2021/10/01 12:36:51;;;;;;;22.83;12.48;;;29.30;55.70;;;;;;4996398;28;20034;-71
2021/10/01 12:39:17;;;;;;;23.02;12.23;;;29.20;58.30;;;;;;5013840;28;20056;-72
2021/10/01 12:41:44;;;;;;;17.40;11.57;;;28.10;60.00;;;;;;4996623;28;20022;-72
2021/10/01 12:44:14;;;;;;;22.05;11.55;;;28.90;58.80;;;;;;4996537;28;20382;-69
2021/10/01 12:46:47;;;;;;;17.42;11.27;;;30.00;55.50;;;;;;5014526;28;20117;-71
2021/10/01 12:49:25;;;;;;;18.73;11.52;;;31.00;56.50;;;;;;5014074;28;20030;-71
2021/10/01 12:52:14;;;;;;;21.80;12.25;;;29.40;56.20;;;;;;5014124;28;20018;-71
2021/10/01 12:54:48;;;;;;;15.38;11.27;;;29.70;55.70;;;;;;4996404;28;20486;-70
2021/10/01 12:57:19;;;;;;;20.42;12.07;;;29.50;57.00;;;;;;5013084;28;20034;-72
2021/10/01 12:59:55;;;;;;;22.05;11.23;;;29.80;56.30;;;;;;5013627;28;20034;-72
2021/10/01 13:02:22;;;;;;;18.27;10.95;;;29.50;54.40;;;;;;5013800;28;20026;-73
2021/10/01 13:04:58;;;;;;;15.73;11.73;;;28.70;56.40;;;;;;5013838;28;20034;-71
2021/10/01 13:07:31;;;;;;;15.80;10.77;;;27.80;58.70;;;;;;5013577;28;20026;-72
2021/10/01 13:10:05;;;;;;;14.90;11.25;;;27.00;59.90;;;;;;5013600;28;20050;-71
2021/10/01 13:12:30;;;;;;;18.27;11.23;;;27.00;60.80;;;;;;5013723;28;20034;-72
2021/10/01 13:15:12;;;;;;;16.60;11.73;;;;;;;;;;5013615;28;20034;-72
2021/10/01 13:17:38;;;;;;;22.05;10.27;;;26.80;62.20;;;;;;4995562;28;20061;-70
2021/10/01 13:20:05;;;;;;;15.43;11.20;;;26.30;61.80;;;;;;4995667;28;20072;-72
2021/10/01 13:22:57;;;;;;;18.73;10.75;;;26.60;63.70;;;;;;4995912;28;20041;-72
2021/10/01 13:25:25;;;;;;;16.73;11.23;;;26.40;62.70;;;;;;4995914;28;20121;-71
2021/10/01 13:27:56;;;;;;;15.85;11.10;;;25.90;63.90;;;;;;5013566;28;20029;-71
2021/10/01 13:30:22;;;;;;;16.20;10.52;;;25.90;65.40;;;;;;4995718;28;20040;-72
2021/10/01 13:32:49;;;;;;;13.95;10.73;;;25.80;63.10;;;;;;5013320;28;20435;-72
2021/10/01 13:35:16;;;;;;;18.30;11.00;;;25.60;64.80;;;;;;4995730;28;20046;-72
2021/10/01 13:37:43;;;;;;;19.90;11.63;;;25.10;64.10;;;;;;4995469;28;20026;-70
2021/10/01 13:40:11;;;;;;;20.80;11.20;;;24.70;67.20;;;;;;4995250;28;20026;-73
2021/10/01 13:42:37;;;;;;;19.98;10.90;;;24.50;67.00;;;;;;5013355;28;20037;-72
2021/10/01 13:45:04;;;;;;;16.38;10.75;;;24.30;67.90;;;;;;5013444;28;20042;-73
2021/10/01 13:47:34;;;;;;;15.73;10.90;;;24.00;65.90;;;;;;5012886;28;20026;-71
2021/10/01 13:50:00;;;;;;;13.82;9.82;;;24.00;67.10;;;;;;5013062;28;20506;-73
2021/10/01 13:52:27;;;;;;;13.80;8.90;;;24.00;67.60;;;;;;5013347;28;20060;-73
2021/10/01 13:54:54;;;;;;;18.25;9.13;;;24.00;66.70;;;;;;4995566;28;20042;-68
2021/10/01 13:57:20;;;;;;;19.50;9.82;;;23.90;66.60;;;;;;5012936;28;20486;-71
2021/10/01 13:59:46;;;;;;;16.02;9.43;;;23.60;67.00;;;;;;4995203;28;20382;-69
2021/10/01 14:02:12;;;;;;;14.88;9.27;;;23.80;68.30;;;;;;5012775;28;20030;-68
2021/10/01 14:04:38;;;;;;;16.77;9.55;;;23.70;68.80;;;;;;5012739;28;20528;-71
2021/10/01 14:07:04;;;;;;;16.15;9.63;;;23.50;68.80;;;;;;5014798;28;20054;-71
2021/10/01 14:09:30;;;;;;;16.25;9.57;;;23.40;69.10;;;;;;4985924;28;20379;-68
2021/10/01 14:11:56;;;;;;;11.65;8.40;;;23.30;68.70;;;;;;4979965;28;20042;-69
2021/10/01 14:14:22;;;;;;;14.32;8.63;;;23.20;67.70;;;;;;4997246;28;20027;-68
2021/10/01 14:16:48;;;;;;;16.15;9.18;;;23.00;67.60;;;;;;4997072;28;20044;-68
2021/10/01 14:19:14;;;;;;;19.40;9.75;;;22.80;66.60;;;;;;4997160;28;20032;-68
2021/10/01 14:21:39;;;;;;;19.00;9.70;;;22.70;69.10;;;;;;4997025;28;20467;-68
2021/10/01 14:24:05;;;;;;;11.45;7.85;;;22.60;70.70;;;;;;4979626;28;20493;-67
2021/10/01 14:26:32;;;;;;;14.50;8.73;;;22.50;69.20;;;;;;4997169;28;20030;-69